sensor_id;sensor_type;location;lat;lon;timestamp;pressure;altitude;pressure_sealevel;temperature;humidity
74936;BME280;63501;55.570;37.488;2024-03-06T00:02:08;99962.00;;;23.58;nan
74936;BME280;63501;55.570;37.488;2024-03-06T00:04:35;99957.63;;;23.57;nan
74936;BME280;63501;55.570;37.488;2024-03-06T00:07:03;99960.88;;;23.56;nan
74936;BME280;63501;55.570;37.488;2024-03-06T00:09:31;99962.94;;;23.55;nan
74936;BME280;63501;55.570;37.488;2024-03-06T00:11:59;99970.59;;;23.55;nan
74936;BME280;63501;55.570;37.488;2024-03-06T00:14:28;99979.06;;;23.55;nan
74936;BME280;63501;55.570;37.488;2024-03-06T00:16:55;99971.88;;;23.54;nan
74936;BME280;63501;55.570;37.488;2024-03-06T00:19:22;99964.66;;;23.53;nan
74936;BME280;63501;55.570;37.488;2024-03-06T00:21:49;99970.31;;;23.53;nan
74936;BME280;63501;55.570;37.488;2024-03-06T00:24:17;99975.16;;;23.52;nan
74936;BME280;63501;55.570;37.488;2024-03-06T00:26:44;99970.31;;;23.53;nan
74936;BME280;63501;55.570;37.488;2024-03-06T00:29:13;99972.34;;;23.52;nan
74936;BME280;63501;55.570;37.488;2024-03-06T00:31:44;99975.63;;;23.50;nan
74936;BME280;63501;55.570;37.488;2024-03-06T00:34:12;99971.22;;;23.49;nan
74936;BME280;63501;55.570;37.488;2024-03-06T00:36:41;99972.19;;;23.46;nan
74936;BME280;63501;55.570;37.488;2024-03-06T00:39:11;99966.53;;;23.46;nan
74936;BME280;63501;55.570;37.488;2024-03-06T00:41:40;99969.00;;;23.44;nan
74936;BME280;63501;55.570;37.488;2024-03-06T00:44:07;99966.66;;;23.43;nan
74936;BME280;63501;55.570;37.488;2024-03-06T00:46:34;99967.94;;;23.42;nan
74936;BME280;63501;55.570;37.488;2024-03-06T00:49:03;99970.75;;;23.42;nan
74936;BME280;63501;55.570;37.488;2024-03-06T00:51:30;99972.78;;;23.41;nan
74936;BME280;63501;55.570;37.488;2024-03-06T00:54:01;99970.75;;;23.42;nan
74936;BME280;63501;55.570;37.488;2024-03-06T00:56:30;99977.19;;;23.42;nan
74936;BME280;63501;55.570;37.488;2024-03-06T00:58:57;99973.22;;;23.40;nan
74936;BME280;63501;55.570;37.488;2024-03-06T01:01:24;99966.81;;;23.39;nan
74936;BME280;63501;55.570;37.488;2024-03-06T01:03:53;99968.06;;;23.38;nan
74936;BME280;63501;55.570;37.488;2024-03-06T01:06:22;99970.09;;;23.38;nan
74936;BME280;63501;55.570;37.488;2024-03-06T01:08:49;99972.94;;;23.38;nan
74936;BME280;63501;55.570;37.488;2024-03-06T01:11:16;99971.38;;;23.37;nan
74936;BME280;63501;55.570;37.488;2024-03-06T01:13:44;99969.00;;;23.35;nan
74936;BME280;63501;55.570;37.488;2024-03-06T01:16:11;99971.84;;;23.35;nan
74936;BME280;63501;55.570;37.488;2024-03-06T01:18:38;99973.53;;;23.33;nan
74936;BME280;63501;55.570;37.488;2024-03-06T01:21:05;99978.41;;;23.32;nan
74936;BME280;63501;55.570;37.488;2024-03-06T01:23:34;99978.41;;;23.32;nan
74936;BME280;63501;55.570;37.488;2024-03-06T01:26:01;99963.97;;;23.30;nan
74936;BME280;63501;55.570;37.488;2024-03-06T01:28:28;99972.44;;;23.30;nan
74936;BME280;63501;55.570;37.488;2024-03-06T01:30:55;99969.63;;;23.30;nan
74936;BME280;63501;55.570;37.488;2024-03-06T01:33:24;99968.06;;;23.29;nan
74936;BME280;63501;55.570;37.488;2024-03-06T01:35:51;99967.25;;;23.29;nan
74936;BME280;63501;55.570;37.488;2024-03-06T01:38:19;99976.53;;;23.29;nan
74936;BME280;63501;55.570;37.488;2024-03-06T01:40:47;99970.06;;;23.29;nan
74936;BME280;63501;55.570;37.488;2024-03-06T01:43:21;99974.50;;;23.30;nan
74936;BME280;63501;55.570;37.488;2024-03-06T01:45:49;99976.53;;;23.29;nan
74936;BME280;63501;55.570;37.488;2024-03-06T01:48:16;99965.69;;;23.28;nan
74936;BME280;63501;55.570;37.488;2024-03-06T01:50:43;99973.38;;;23.27;nan
74936;BME280;63501;55.570;37.488;2024-03-06T01:53:12;99977.75;;;23.28;nan
74936;BME280;63501;55.570;37.488;2024-03-06T01:55:39;99967.25;;;23.29;nan
74936;BME280;63501;55.570;37.488;2024-03-06T01:58:09;99967.25;;;23.29;nan
74936;BME280;63501;55.570;37.488;2024-03-06T02:00:37;99980.56;;;23.28;nan
74936;BME280;63501;55.570;37.488;2024-03-06T02:03:04;99987.00;;;23.29;nan
74936;BME280;63501;55.570;37.488;2024-03-06T02:05:32;99981.03;;;23.27;nan
74936;BME280;63501;55.570;37.488;2024-03-06T02:07:59;99983.56;;;23.25;nan
74936;BME280;63501;55.570;37.488;2024-03-06T02:10:27;99991.25;;;23.24;nan
74936;BME280;63501;55.570;37.488;2024-03-06T02:12:54;99986.81;;;23.23;nan
74936;BME280;63501;55.570;37.488;2024-03-06T02:15:24;99988.41;;;23.24;nan
74936;BME280;63501;55.570;37.488;2024-03-06T02:17:51;99993.28;;;23.23;nan
74936;BME280;63501;55.570;37.488;2024-03-06T02:20:23;99986.81;;;23.23;nan
74936;BME280;63501;55.570;37.488;2024-03-06T02:22:50;99992.03;;;23.25;nan
74936;BME280;63501;55.570;37.488;2024-03-06T02:25:18;99990.75;;;23.26;nan
74936;BME280;63501;55.570;37.488;2024-03-06T02:27:46;99985.91;;;23.26;nan
74936;BME280;63501;55.570;37.488;2024-03-06T02:30:14;99990.28;;;23.27;nan
74936;BME280;63501;55.570;37.488;2024-03-06T02:32:41;99990.28;;;23.27;nan
74936;BME280;63501;55.570;37.488;2024-03-06T02:35:09;99990.28;;;23.27;nan
74936;BME280;63501;55.570;37.488;2024-03-06T02:37:39;99995.94;;;23.27;nan
74936;BME280;63501;55.570;37.488;2024-03-06T02:40:08;99989.19;;;23.25;nan
74936;BME280;63501;55.570;37.488;2024-03-06T02:42:35;99986.81;;;23.23;nan
74936;BME280;63501;55.570;37.488;2024-03-06T02:45:05;99990.91;;;23.22;nan
74936;BME280;63501;55.570;37.488;2024-03-06T02:47:33;99999.06;;;23.20;nan
74936;BME280;63501;55.570;37.488;2024-03-06T02:50:00;99996.22;;;23.20;nan
74936;BME280;63501;55.570;37.488;2024-03-06T02:52:29;99991.84;;;23.19;nan
74936;BME280;63501;55.570;37.488;2024-03-06T02:54:57;99989.03;;;23.19;nan
74936;BME280;63501;55.570;37.488;2024-03-06T02:57:26;99987.00;;;23.19;nan
74936;BME280;63501;55.570;37.488;2024-03-06T02:59:55;99994.66;;;23.19;nan
74936;BME280;63501;55.570;37.488;2024-03-06T03:02:22;100004.69;;;23.20;nan
74936;BME280;63501;55.570;37.488;2024-03-06T03:04:49;100008.00;;;23.18;nan
74936;BME280;63501;55.570;37.488;2024-03-06T03:07:17;100014.41;;;23.19;nan
74936;BME280;63501;55.570;37.488;2024-03-06T03:09:45;100014.41;;;23.19;nan
74936;BME280;63501;55.570;37.488;2024-03-06T03:12:14;100018.50;;;23.18;nan
74936;BME280;63501;55.570;37.488;2024-03-06T03:14:41;100018.50;;;23.18;nan
74936;BME280;63501;55.570;37.488;2024-03-06T03:17:08;100024.13;;;23.18;nan
74936;BME280;63501;55.570;37.488;2024-03-06T03:19:36;100024.91;;;23.18;nan
74936;BME280;63501;55.570;37.488;2024-03-06T03:22:05;100018.50;;;23.18;nan
74936;BME280;63501;55.570;37.488;2024-03-06T03:24:35;100027.25;;;23.20;nan
74936;BME280;63501;55.570;37.488;2024-03-06T03:27:02;100026.47;;;23.19;nan
74936;BME280;63501;55.570;37.488;2024-03-06T03:29:31;100024.91;;;23.18;nan
74936;BME280;63501;55.570;37.488;2024-03-06T03:31:58;100030.56;;;23.18;nan
74936;BME280;63501;55.570;37.488;2024-03-06T03:34:25;100036.97;;;23.19;nan
74936;BME280;63501;55.570;37.488;2024-03-06T03:36:53;100033.81;;;23.17;nan
74936;BME280;63501;55.570;37.488;2024-03-06T03:39:20;100037.44;;;23.17;nan
74936;BME280;63501;55.570;37.488;2024-03-06T03:41:50;100042.63;;;23.19;nan
74936;BME280;63501;55.570;37.488;2024-03-06T03:44:17;100034.59;;;23.17;nan
74936;BME280;63501;55.570;37.488;2024-03-06T03:46:47;100042.63;;;23.19;nan
74936;BME280;63501;55.570;37.488;2024-03-06T03:49:14;100046.53;;;23.21;nan
74936;BME280;63501;55.570;37.488;2024-03-06T03:51:42;100044.84;;;23.24;nan
74936;BME280;63501;55.570;37.488;2024-03-06T03:54:09;100039.50;;;23.26;nan
74936;BME280;63501;55.570;37.488;2024-03-06T03:56:36;100040.28;;;23.27;nan
74936;BME280;63501;55.570;37.488;2024-03-06T03:59:04;100042.66;;;23.28;nan
74936;BME280;63501;55.570;37.488;2024-03-06T04:01:31;100043.44;;;23.29;nan
74936;BME280;63501;55.570;37.488;2024-03-06T04:04:00;100039.38;;;23.30;nan
74936;BME280;63501;55.570;37.488;2024-03-06T04:06:27;100035.78;;;23.29;nan
74936;BME280;63501;55.570;37.488;2024-03-06T04:08:54;100027.91;;;23.24;nan
74936;BME280;63501;55.570;37.488;2024-03-06T04:11:22;100038.56;;;23.20;nan
74936;BME280;63501;55.570;37.488;2024-03-06T04:13:49;100038.25;;;23.18;nan
74936;BME280;63501;55.570;37.488;2024-03-06T04:16:17;100037.75;;;23.19;nan
74936;BME280;63501;55.570;37.488;2024-03-06T04:18:44;100044.84;;;23.24;nan
74936;BME280;63501;55.570;37.488;2024-03-06T04:21:13;100035.44;;;23.27;nan
74936;BME280;63501;55.570;37.488;2024-03-06T04:23:41;100040.16;;;23.30;nan
74936;BME280;63501;55.570;37.488;2024-03-06T04:26:08;100037.19;;;23.34;nan
74936;BME280;63501;55.570;37.488;2024-03-06T04:28:35;100039.88;;;23.37;nan
74936;BME280;63501;55.570;37.488;2024-03-06T04:31:04;100045.03;;;23.39;nan
74936;BME280;63501;55.570;37.488;2024-03-06T04:33:31;100039.25;;;23.42;nan
74936;BME280;63501;55.570;37.488;2024-03-06T04:36:00;100039.91;;;23.46;nan
74936;BME280;63501;55.570;37.488;2024-03-06T04:38:29;100034.88;;;23.50;nan
74936;BME280;63501;55.570;37.488;2024-03-06T04:40:56;100038.34;;;23.55;nan
74936;BME280;63501;55.570;37.488;2024-03-06T04:43:23;100040.25;;;23.58;nan
74936;BME280;63501;55.570;37.488;2024-03-06T04:45:51;100034.03;;;23.63;nan
74936;BME280;63501;55.570;37.488;2024-03-06T04:48:18;100034.97;;;23.69;nan
74936;BME280;63501;55.570;37.488;2024-03-06T04:50:45;100027.47;;;23.75;nan
74936;BME280;63501;55.570;37.488;2024-03-06T04:53:12;100039.69;;;23.81;nan
74936;BME280;63501;55.570;37.488;2024-03-06T04:55:41;100032.66;;;23.86;nan
74936;BME280;63501;55.570;37.488;2024-03-06T04:58:08;100021.69;;;23.97;nan
74936;BME280;63501;55.570;37.488;2024-03-06T05:00:36;100030.78;;;24.19;nan
74936;BME280;63501;55.570;37.488;2024-03-06T05:03:03;100027.16;;;24.46;nan
74936;BME280;63501;55.570;37.488;2024-03-06T05:05:31;100020.25;;;24.75;nan
74936;BME280;63501;55.570;37.488;2024-03-06T05:07:58;100020.78;;;24.97;nan
74936;BME280;63501;55.570;37.488;2024-03-06T05:10:25;100026.69;;;25.18;nan
74936;BME280;63501;55.570;37.488;2024-03-06T05:12:54;100024.59;;;25.37;nan
74936;BME280;63501;55.570;37.488;2024-03-06T05:15:21;100016.94;;;25.52;nan
74936;BME280;63501;55.570;37.488;2024-03-06T05:17:48;100013.91;;;25.65;nan
74936;BME280;63501;55.570;37.488;2024-03-06T05:20:34;100020.13;;;25.78;nan
74936;BME280;63501;55.570;37.488;2024-03-06T05:23:01;100020.06;;;25.87;nan
74936;BME280;63501;55.570;37.488;2024-03-06T05:25:29;100019.38;;;25.92;nan
74936;BME280;63501;55.570;37.488;2024-03-06T05:27:58;100014.03;;;25.94;nan
74936;BME280;63501;55.570;37.488;2024-03-06T05:30:25;100022.53;;;25.94;nan
74936;BME280;63501;55.570;37.488;2024-03-06T05:32:52;100022.22;;;25.92;nan
74936;BME280;63501;55.570;37.488;2024-03-06T05:35:19;100026.31;;;25.91;nan
74936;BME280;63501;55.570;37.488;2024-03-06T05:37:46;100031.97;;;25.91;nan
74936;BME280;63501;55.570;37.488;2024-03-06T05:40:14;100023.47;;;25.91;nan
74936;BME280;63501;55.570;37.488;2024-03-06T05:42:41;100030.41;;;25.90;nan
74936;BME280;63501;55.570;37.488;2024-03-06T05:45:10;100023.69;;;25.88;nan
74936;BME280;63501;55.570;37.488;2024-03-06T05:47:37;100032.66;;;25.86;nan
74936;BME280;63501;55.570;37.488;2024-03-06T05:50:05;100032.84;;;25.82;nan
74936;BME280;63501;55.570;37.488;2024-03-06T05:52:33;100030.47;;;25.81;nan
74936;BME280;63501;55.570;37.488;2024-03-06T05:55:00;100039.94;;;25.78;nan
74936;BME280;63501;55.570;37.488;2024-03-06T05:57:29;100026.75;;;25.75;nan
74936;BME280;63501;55.570;37.488;2024-03-06T05:59:56;100030.03;;;25.73;nan
74936;BME280;63501;55.570;37.488;2024-03-06T06:02:25;100036.97;;;25.72;nan
74936;BME280;63501;55.570;37.488;2024-03-06T06:04:53;100043.59;;;25.69;nan
74936;BME280;63501;55.570;37.488;2024-03-06T06:07:21;100038.91;;;25.66;nan
74936;BME280;63501;55.570;37.488;2024-03-06T06:09:48;100041.72;;;25.66;nan
74936;BME280;63501;55.570;37.488;2024-03-06T06:12:15;100040.94;;;25.66;nan
74936;BME280;63501;55.570;37.488;2024-03-06T06:14:42;100039.50;;;25.70;nan
74936;BME280;63501;55.570;37.488;2024-03-06T06:17:10;100040.84;;;25.84;nan
74936;BME280;63501;55.570;37.488;2024-03-06T06:19:41;100042.78;;;26.02;nan
74936;BME280;63501;55.570;37.488;2024-03-06T06:22:27;100036.00;;;26.23;nan
74936;BME280;63501;55.570;37.488;2024-03-06T06:24:54;100046.22;;;26.45;nan
74936;BME280;63501;55.570;37.488;2024-03-06T06:27:22;100040.47;;;26.69;nan
74936;BME280;63501;55.570;37.488;2024-03-06T06:29:51;100032.84;;;26.89;nan
74936;BME280;63501;55.570;37.488;2024-03-06T06:32:20;100042.94;;;27.05;nan
74936;BME280;63501;55.570;37.488;2024-03-06T06:34:49;100030.78;;;27.20;nan
74936;BME280;63501;55.570;37.488;2024-03-06T06:37:17;100039.56;;;27.36;nan
74936;BME280;63501;55.570;37.488;2024-03-06T06:39:45;100042.84;;;27.50;nan
74936;BME280;63501;55.570;37.488;2024-03-06T06:42:12;100042.53;;;27.62;nan
74936;BME280;63501;55.570;37.488;2024-03-06T06:44:39;100034.47;;;27.76;nan
74936;BME280;63501;55.570;37.488;2024-03-06T06:47:07;100043.16;;;27.87;nan
74936;BME280;63501;55.570;37.488;2024-03-06T06:49:34;100032.94;;;27.95;nan
74936;BME280;63501;55.570;37.488;2024-03-06T06:52:03;100039.22;;;28.05;nan
74936;BME280;63501;55.570;37.488;2024-03-06T06:54:30;100039.31;;;28.10;nan
74936;BME280;63501;55.570;37.488;2024-03-06T06:56:57;100047.69;;;28.19;nan
74936;BME280;63501;55.570;37.488;2024-03-06T06:59:24;100042.22;;;28.36;nan
74936;BME280;63501;55.570;37.488;2024-03-06T07:01:52;100053.72;;;28.48;nan
74936;BME280;63501;55.570;37.488;2024-03-06T07:04:19;100052.94;;;28.47;nan
74936;BME280;63501;55.570;37.488;2024-03-06T07:06:47;100051.88;;;28.44;nan
74936;BME280;63501;55.570;37.488;2024-03-06T07:09:16;100048.97;;;28.39;nan
74936;BME280;63501;55.570;37.488;2024-03-06T07:11:44;100053.59;;;28.36;nan
74936;BME280;63501;55.570;37.488;2024-03-06T07:14:11;100043.00;;;28.37;nan
74936;BME280;63501;55.570;37.488;2024-03-06T07:16:42;100050.56;;;28.40;nan
74936;BME280;63501;55.570;37.488;2024-03-06T07:19:09;100046.63;;;28.37;nan
74936;BME280;63501;55.570;37.488;2024-03-06T07:21:36;100050.41;;;28.29;nan
74936;BME280;63501;55.570;37.488;2024-03-06T07:24:04;100055.94;;;28.17;nan
74936;BME280;63501;55.570;37.488;2024-03-06T07:26:33;100046.00;;;28.07;nan
74936;BME280;63501;55.570;37.488;2024-03-06T07:29:01;100053.09;;;27.97;nan
74936;BME280;63501;55.570;37.488;2024-03-06T07:31:28;100050.13;;;27.86;nan
74936;BME280;63501;55.570;37.488;2024-03-06T07:33:58;100055.13;;;27.76;nan
74936;BME280;63501;55.570;37.488;2024-03-06T07:36:26;100058.88;;;27.67;nan
74936;BME280;63501;55.570;37.488;2024-03-06T07:38:53;100062.13;;;27.60;nan
74936;BME280;63501;55.570;37.488;2024-03-06T07:41:20;100064.88;;;27.55;nan
74936;BME280;63501;55.570;37.488;2024-03-06T07:43:49;100066.06;;;27.48;nan
74936;BME280;63501;55.570;37.488;2024-03-06T07:46:16;100065.00;;;27.46;nan
74936;BME280;63501;55.570;37.488;2024-03-06T07:48:44;100066.66;;;27.52;nan
74936;BME280;63501;55.570;37.488;2024-03-06T07:51:11;100068.88;;;27.63;nan
74936;BME280;63501;55.570;37.488;2024-03-06T07:53:38;100069.34;;;27.76;nan
74936;BME280;63501;55.570;37.488;2024-03-06T07:56:05;100060.00;;;27.90;nan
74936;BME280;63501;55.570;37.488;2024-03-06T07:58:32;100070.50;;;28.05;nan
74936;BME280;63501;55.570;37.488;2024-03-06T08:01:01;100064.69;;;28.14;nan
74936;BME280;63501;55.570;37.488;2024-03-06T08:03:28;100068.44;;;28.26;nan
74936;BME280;63501;55.570;37.488;2024-03-06T08:05:55;100063.91;;;28.34;nan
74936;BME280;63501;55.570;37.488;2024-03-06T08:08:22;100067.38;;;28.43;nan
74936;BME280;63501;55.570;37.488;2024-03-06T08:10:49;100067.22;;;28.53;nan
74936;BME280;63501;55.570;37.488;2024-03-06T08:13:17;100061.59;;;28.58;nan
74936;BME280;63501;55.570;37.488;2024-03-06T08:15:44;100070.47;;;28.66;nan
74936;BME280;63501;55.570;37.488;2024-03-06T08:18:13;100066.13;;;28.70;nan
74936;BME280;63501;55.570;37.488;2024-03-06T08:20:43;100059.97;;;28.78;nan
74936;BME280;63501;55.570;37.488;2024-03-06T08:23:11;100068.09;;;28.85;nan
74936;BME280;63501;55.570;37.488;2024-03-06T08:25:38;100061.16;;;28.91;nan
74936;BME280;63501;55.570;37.488;2024-03-06T08:28:06;100064.84;;;28.97;nan
74936;BME280;63501;55.570;37.488;2024-03-06T08:30:33;100060.50;;;29.02;nan
74936;BME280;63501;55.570;37.488;2024-03-06T08:33:00;100057.91;;;29.04;nan
74936;BME280;63501;55.570;37.488;2024-03-06T08:35:31;100061.81;;;29.07;nan
74936;BME280;63501;55.570;37.488;2024-03-06T08:37:58;100064.44;;;29.10;nan
74936;BME280;63501;55.570;37.488;2024-03-06T08:40:26;100061.38;;;29.14;nan
74936;BME280;63501;55.570;37.488;2024-03-06T08:42:54;100062.97;;;29.20;nan
74936;BME280;63501;55.570;37.488;2024-03-06T08:48:07;100065.16;;;29.37;nan
74936;BME280;63501;55.570;37.488;2024-03-06T08:50:36;100060.56;;;29.45;nan
74936;BME280;63501;55.570;37.488;2024-03-06T08:53:04;100057.53;;;29.54;nan
74936;BME280;63501;55.570;37.488;2024-03-06T08:55:31;100052.44;;;29.64;nan
74936;BME280;63501;55.570;37.488;2024-03-06T08:57:58;100046.22;;;29.65;nan
74936;BME280;63501;55.570;37.488;2024-03-06T09:00:26;100050.59;;;29.61;nan
74936;BME280;63501;55.570;37.488;2024-03-06T09:02:53;100055.38;;;29.43;nan
74936;BME280;63501;55.570;37.488;2024-03-06T09:05:21;100053.19;;;29.27;nan
74936;BME280;63501;55.570;37.488;2024-03-06T09:07:50;100057.69;;;29.08;nan
74936;BME280;63501;55.570;37.488;2024-03-06T09:10:17;100059.28;;;28.88;nan
74936;BME280;63501;55.570;37.488;2024-03-06T09:12:45;100049.59;;;28.75;nan
74936;BME280;63501;55.570;37.488;2024-03-06T09:15:14;100055.91;;;28.58;nan
74936;BME280;63501;55.570;37.488;2024-03-06T09:17:42;100060.91;;;28.43;nan
74936;BME280;63501;55.570;37.488;2024-03-06T09:20:10;100056.94;;;28.35;nan
74936;BME280;63501;55.570;37.488;2024-03-06T09:22:38;100057.91;;;28.32;nan
74936;BME280;63501;55.570;37.488;2024-03-06T09:25:06;100056.72;;;28.18;nan
74936;BME280;63501;55.570;37.488;2024-03-06T09:27:34;100052.97;;;28.06;nan
74936;BME280;63501;55.570;37.488;2024-03-06T09:30:02;100059.50;;;27.92;nan
74936;BME280;63501;55.570;37.488;2024-03-06T09:32:31;100057.97;;;27.76;nan
74936;BME280;63501;55.570;37.488;2024-03-06T09:34:58;100047.72;;;27.64;nan
74936;BME280;63501;55.570;37.488;2024-03-06T09:37:25;100055.47;;;27.63;nan
74936;BME280;63501;55.570;37.488;2024-03-06T09:39:53;100060.13;;;27.66;nan
74936;BME280;63501;55.570;37.488;2024-03-06T09:42:23;100052.69;;;27.69;nan
74936;BME280;63501;55.570;37.488;2024-03-06T09:44:51;100061.06;;;27.73;nan
74936;BME280;63501;55.570;37.488;2024-03-06T09:47:18;100054.34;;;27.76;nan
74936;BME280;63501;55.570;37.488;2024-03-06T09:49:49;100054.94;;;27.80;nan
74936;BME280;63501;55.570;37.488;2024-03-06T09:52:17;100047.00;;;27.84;nan
74936;BME280;63501;55.570;37.488;2024-03-06T09:54:44;100041.09;;;27.87;nan
74936;BME280;63501;55.570;37.488;2024-03-06T09:57:11;100042.16;;;27.90;nan
74936;BME280;63501;55.570;37.488;2024-03-06T09:59:42;100037.25;;;27.90;nan
74936;BME280;63501;55.570;37.488;2024-03-06T10:02:28;100041.88;;;27.88;nan
74936;BME280;63501;55.570;37.488;2024-03-06T10:04:57;100045.22;;;27.86;nan
74936;BME280;63501;55.570;37.488;2024-03-06T10:07:26;100043.56;;;27.80;nan
74936;BME280;63501;55.570;37.488;2024-03-06T10:09:54;100045.56;;;27.74;nan
74936;BME280;63501;55.570;37.488;2024-03-06T10:12:23;100044.59;;;27.62;nan
74936;BME280;63501;55.570;37.488;2024-03-06T10:14:52;100046.34;;;27.39;nan
74936;BME280;63501;55.570;37.488;2024-03-06T10:17:22;100044.53;;;27.06;nan
74936;BME280;63501;55.570;37.488;2024-03-06T10:19:52;100044.69;;;26.88;nan
74936;BME280;63501;55.570;37.488;2024-03-06T10:22:20;100048.22;;;26.83;nan
74936;BME280;63501;55.570;37.488;2024-03-06T10:24:55;100037.34;;;26.81;nan
74936;BME280;63501;55.570;37.488;2024-03-06T10:27:23;100045.38;;;26.83;nan
74936;BME280;63501;55.570;37.488;2024-03-06T10:30:02;100038.03;;;26.76;nan
74936;BME280;63501;55.570;37.488;2024-03-06T10:32:36;100039.00;;;26.58;nan
74936;BME280;63501;55.570;37.488;2024-03-06T10:35:05;100035.97;;;26.47;nan
74936;BME280;63501;55.570;37.488;2024-03-06T10:37:35;100031.03;;;26.33;nan
74936;BME280;63501;55.570;37.488;2024-03-06T10:40:04;100035.00;;;26.11;nan
74936;BME280;63501;55.570;37.488;2024-03-06T10:42:33;100036.16;;;26.05;nan
74936;BME280;63501;55.570;37.488;2024-03-06T10:45:05;100037.72;;;26.06;nan
74936;BME280;63501;55.570;37.488;2024-03-06T10:47:33;100036.25;;;26.10;nan
74936;BME280;63501;55.570;37.488;2024-03-06T10:50:02;100029.13;;;26.15;nan
74936;BME280;63501;55.570;37.488;2024-03-06T10:52:33;100028.94;;;26.19;nan
74936;BME280;63501;55.570;37.488;2024-03-06T10:55:00;100029.53;;;26.23;nan
74936;BME280;63501;55.570;37.488;2024-03-06T10:57:30;100034.81;;;26.30;nan
74936;BME280;63501;55.570;37.488;2024-03-06T10:59:57;100028.78;;;26.37;nan
74936;BME280;63501;55.570;37.488;2024-03-06T11:02:27;100028.13;;;26.42;nan
74936;BME280;63501;55.570;37.488;2024-03-06T11:04:55;100021.78;;;26.47;nan
74936;BME280;63501;55.570;37.488;2024-03-06T11:07:22;100028.31;;;26.38;nan
74936;BME280;63501;55.570;37.488;2024-03-06T11:09:50;100028.56;;;26.26;nan
74936;BME280;63501;55.570;37.488;2024-03-06T11:12:32;100018.69;;;26.21;nan
74936;BME280;63501;55.570;37.488;2024-03-06T11:15:00;100014.00;;;26.18;nan
74936;BME280;63501;55.570;37.488;2024-03-06T11:17:31;100013.38;;;26.14;nan
74936;BME280;63501;55.570;37.488;2024-03-06T11:20:17;100014.16;;;26.00;nan
74936;BME280;63501;55.570;37.488;2024-03-06T11:23:04;100006.19;;;25.89;nan
74936;BME280;63501;55.570;37.488;2024-03-06T11:28:29;100003.31;;;25.98;nan
74936;BME280;63501;55.570;37.488;2024-03-06T11:30:58;100002.59;;;26.03;nan
74936;BME280;63501;55.570;37.488;2024-03-06T11:33:37;99992.88;;;26.04;nan
74936;BME280;63501;55.570;37.488;2024-03-06T11:36:20;99997.84;;;26.09;nan
74936;BME280;63501;55.570;37.488;2024-03-06T11:38:52;100002.53;;;26.13;nan
74936;BME280;63501;55.570;37.488;2024-03-06T11:41:23;99991.97;;;26.13;nan
74936;BME280;63501;55.570;37.488;2024-03-06T11:43:52;99995.41;;;26.17;nan
74936;BME280;63501;55.570;37.488;2024-03-06T11:46:21;99988.75;;;26.20;nan
74936;BME280;63501;55.570;37.488;2024-03-06T11:48:54;99992.38;;;26.21;nan
74936;BME280;63501;55.570;37.488;2024-03-06T11:51:22;99985.47;;;26.22;nan
74936;BME280;63501;55.570;37.488;2024-03-06T11:53:50;99989.09;;;26.22;nan
74936;BME280;63501;55.570;37.488;2024-03-06T11:56:20;99985.47;;;26.22;nan
74936;BME280;63501;55.570;37.488;2024-03-06T11:58:48;99984.97;;;26.23;nan
74936;BME280;63501;55.570;37.488;2024-03-06T12:01:15;99985.47;;;26.22;nan
74936;BME280;63501;55.570;37.488;2024-03-06T12:03:42;99983.88;;;26.21;nan
74936;BME280;63501;55.570;37.488;2024-03-06T12:06:13;99976.84;;;26.16;nan
74936;BME280;63501;55.570;37.488;2024-03-06T12:08:40;99972.94;;;26.14;nan
74936;BME280;63501;55.570;37.488;2024-03-06T12:11:08;99970.88;;;26.14;nan
74936;BME280;63501;55.570;37.488;2024-03-06T12:13:37;99973.25;;;26.16;nan
74936;BME280;63501;55.570;37.488;2024-03-06T12:16:08;99965.81;;;26.18;nan
74936;BME280;63501;55.570;37.488;2024-03-06T12:18:35;99964.53;;;26.19;nan
74936;BME280;63501;55.570;37.488;2024-03-06T12:21:04;99953.50;;;26.21;nan
74936;BME280;63501;55.570;37.488;2024-03-06T12:23:33;99960.53;;;26.26;nan
74936;BME280;63501;55.570;37.488;2024-03-06T12:26:07;99958.00;;;26.28;nan
74936;BME280;63501;55.570;37.488;2024-03-06T12:28:36;99954.50;;;26.33;nan
74936;BME280;63501;55.570;37.488;2024-03-06T12:31:04;99951.94;;;26.35;nan
74936;BME280;63501;55.570;37.488;2024-03-06T12:33:33;99958.22;;;26.39;nan
74936;BME280;63501;55.570;37.488;2024-03-06T12:36:03;99961.34;;;26.41;nan
74936;BME280;63501;55.570;37.488;2024-03-06T12:38:34;99951.75;;;26.38;nan
74936;BME280;63501;55.570;37.488;2024-03-06T12:41:01;99947.44;;;26.28;nan
74936;BME280;63501;55.570;37.488;2024-03-06T12:43:29;99951.41;;;26.07;nan
74936;BME280;63501;55.570;37.488;2024-03-06T12:45:56;99956.97;;;26.01;nan
74936;BME280;63501;55.570;37.488;2024-03-06T12:48:24;99948.59;;;26.07;nan
74936;BME280;63501;55.570;37.488;2024-03-06T12:50:55;99954.84;;;26.11;nan
74936;BME280;63501;55.570;37.488;2024-03-06T12:53:30;99947.63;;;26.25;nan
74936;BME280;63501;55.570;37.488;2024-03-06T12:56:00;99945.44;;;26.44;nan
74936;BME280;63501;55.570;37.488;2024-03-06T12:58:28;99944.81;;;26.69;nan
74936;BME280;63501;55.570;37.488;2024-03-06T13:00:57;99942.16;;;26.95;nan
74936;BME280;63501;55.570;37.488;2024-03-06T13:03:24;99938.66;;;27.21;nan
74936;BME280;63501;55.570;37.488;2024-03-06T13:05:52;99932.50;;;27.42;nan
74936;BME280;63501;55.570;37.488;2024-03-06T13:08:19;99926.47;;;27.55;nan
74936;BME280;63501;55.570;37.488;2024-03-06T13:10:46;99930.75;;;27.65;nan
74936;BME280;63501;55.570;37.488;2024-03-06T13:13:15;99925.47;;;27.73;nan
74936;BME280;63501;55.570;37.488;2024-03-06T13:15:45;99927.84;;;27.80;nan
74936;BME280;63501;55.570;37.488;2024-03-06T13:18:14;99932.53;;;27.83;nan